Time;durP1;ratioP1;P1;durP2;ratioP2;P2;SDS_P1;SDS_P2;PMS_P1;PMS_P2;Temp;Humidity;BMP_temperature;BMP_pressure;BME280_temperature;BME280_humidity;BME280_pressure;Samples;Min_cycle;Max_cycle;Signal;HPM_P1;HPM_P2
2023/06/20 00:02:21;;;;;;;14.10;10.68;;;588.90;2432.00;;;;;;4873233;29;20032;-73
2023/06/20 00:04:47;;;;;;;16.05;11.60;;;588.90;2432.00;;;;;;4886509;29;20104;-77
2023/06/20 00:07:13;;;;;;;16.77;12.13;;;564.10;2432.00;;;;;;4891433;29;20036;-75
2023/06/20 00:09:39;;;;;;;17.25;13.05;;;564.00;2432.00;;;;;;4882946;29;20021;-75
2023/06/20 00:12:05;;;;;;;16.52;12.05;;;563.90;2432.00;;;;;;4889815;29;20033;-76
2023/06/20 00:14:31;;;;;;;18.02;12.73;;;563.80;2432.00;;;;;;4881954;29;20188;-78
2023/06/20 00:16:59;;;;;;;16.08;12.75;;;563.80;2432.00;;;;;;4884385;29;20447;-77
2023/06/20 00:19:26;;;;;;;15.52;12.32;;;563.70;2432.00;;;;;;4887002;29;20024;-77
2023/06/20 00:21:52;;;;;;;17.63;12.13;;;563.70;2432.00;;;;;;4893488;29;20037;-77
2023/06/20 00:24:17;;;;;;;22.35;13.80;;;563.70;2432.00;;;;;;4886632;29;20031;-75
2023/06/20 00:26:43;;;;;;;19.27;13.38;;;563.60;2432.00;;;;;;4885114;29;20033;-74
2023/06/20 00:29:09;;;;;;;17.23;13.30;;;563.50;2432.00;;;;;;4881944;29;20437;-74
2023/06/20 00:31:36;;;;;;;18.83;14.68;;;563.60;2432.00;;;;;;4881496;29;20025;-75
2023/06/20 00:34:02;;;;;;;20.55;13.60;;;563.70;2432.00;;;;;;4883898;29;20067;-78
2023/06/20 00:36:28;;;;;;;19.70;14.32;;;563.90;2432.00;;;;;;4889481;29;20053;-77
2023/06/20 00:38:56;;;;;;;23.15;13.93;;;564.10;2432.00;;;;;;4883722;29;20442;-78
2023/06/20 00:41:23;;;;;;;17.48;14.02;;;588.90;2432.00;;;;;;4870522;29;20452;-75
2023/06/20 00:43:49;;;;;;;20.83;14.98;;;589.00;2432.00;;;;;;4896393;29;20032;-76
2023/06/20 00:46:19;;;;;;;19.35;14.65;;;589.10;2432.00;;;;;;4898018;29;20107;-76
2023/06/20 00:48:47;;;;;;;16.80;13.18;;;589.20;2432.00;;;;;;4891763;29;20040;-81
2023/06/20 00:51:16;;;;;;;17.15;14.65;;;589.00;2432.00;;;;;;4879218;29;20040;-75
2023/06/20 00:53:43;;;;;;;19.73;14.20;;;564.00;2432.00;;;;;;4878991;29;20052;-82
2023/06/20 00:56:12;;;;;;;17.60;13.80;;;564.00;2432.00;;;;;;4879116;29;20036;-74
2023/06/20 00:58:38;;;;;;;17.90;13.30;;;563.70;2432.00;;;;;;4879093;29;20104;-79
2023/06/20 01:01:04;;;;;;;19.80;14.98;;;563.50;2432.00;;;;;;4879058;29;20033;-76
2023/06/20 01:03:31;;;;;;;22.70;13.43;;;563.30;2432.00;;;;;;4879016;29;20365;-74
2023/06/20 01:06:20;;;;;;;18.98;14.45;;;563.20;2432.00;;;;;;4878969;29;20036;-82
2023/06/20 01:08:55;;;;;;;22.10;14.38;;;538.50;2406.40;;;;;;4879132;29;20037;-74
2023/06/20 01:11:29;;;;;;;20.95;15.60;;;538.40;2406.40;;;;;;4884651;29;20085;-75
2023/06/20 01:13:57;;;;;;;22.20;15.70;;;538.50;2406.40;;;;;;4892784;29;20045;-74
2023/06/20 01:16:38;;;;;;;23.58;15.18;;;538.40;2406.40;;;;;;4886713;29;20029;-75
2023/06/20 01:19:21;;;;;;;20.80;15.18;;;538.50;2406.40;;;;;;4886768;29;20028;-81
2023/06/20 01:21:57;;;;;;;26.02;16.02;;;538.20;2406.40;;;;;;4884689;29;20119;-75
2023/06/20 01:24:33;;;;;;;22.63;14.70;;;538.10;2406.40;;;;;;4884186;29;20441;-75
2023/06/20 01:27:06;;;;;;;26.20;15.40;;;538.10;2406.40;;;;;;4885648;29;20112;-75
2023/06/20 01:30:01;;;;;;;23.10;16.27;;;538.00;2406.40;;;;;;4887971;29;20060;-74
2023/06/20 01:32:30;;;;;;;22.20;16.05;;;538.00;2406.40;;;;;;4883117;29;20048;-74
2023/06/20 01:35:09;;;;;;;21.13;15.50;;;538.00;2406.40;;;;;;4886120;29;20025;-76
2023/06/20 01:37:39;;;;;;;21.08;16.38;;;538.10;2406.40;;;;;;4887435;29;20112;-75
2023/06/20 01:40:08;;;;;;;21.77;14.75;;;538.10;2406.40;;;;;;4889484;29;20020;-74
2023/06/20 01:42:35;;;;;;;20.33;15.63;;;538.10;2406.40;;;;;;4883072;29;20047;-79
2023/06/20 01:45:04;;;;;;;29.55;15.70;;;538.00;2406.40;;;;;;4887797;29;20034;-75
2023/06/20 01:47:34;;;;;;;24.35;16.90;;;538.10;2406.40;;;;;;4892945;29;20025;-82
2023/06/20 01:50:01;;;;;;;20.95;16.02;;;538.10;2406.40;;;;;;4892530;29;20043;-74
2023/06/20 01:52:29;;;;;;;25.67;16.73;;;538.00;2406.40;;;;;;4888448;29;20020;-75
2023/06/20 01:54:57;;;;;;;23.25;16.90;;;537.90;2406.40;;;;;;4889257;29;20100;-77
2023/06/20 01:57:24;;;;;;;20.25;16.70;;;537.90;2406.40;;;;;;4889519;29;20024;-74
2023/06/20 01:59:50;;;;;;;22.63;15.50;;;537.90;2406.40;;;;;;4886219;29;20025;-75
2023/06/20 02:02:18;;;;;;;30.95;18.27;;;537.90;2406.40;;;;;;4882546;29;20017;-80
2023/06/20 02:04:45;;;;;;;22.13;17.23;;;537.70;2406.40;;;;;;4885794;29;20025;-74
2023/06/20 02:07:12;;;;;;;22.98;17.45;;;537.70;2406.40;;;;;;4886325;29;20123;-74
2023/06/20 02:09:39;;;;;;;26.20;17.58;;;512.90;2380.80;;;;;;4885024;29;20032;-75
2023/06/20 02:12:07;;;;;;;29.60;18.20;;;512.70;2380.80;;;;;;4896351;29;20048;-76
2023/06/20 02:14:33;;;;;;;25.52;17.63;;;512.70;2380.80;;;;;;4884830;29;20132;-76
2023/06/20 02:17:02;;;;;;;31.25;18.35;;;512.40;2380.80;;;;;;4885046;29;20029;-74
2023/06/20 02:19:28;;;;;;;28.95;18.83;;;512.40;2380.80;;;;;;4881803;29;20035;-81
2023/06/20 02:21:55;;;;;;;29.23;18.98;;;512.40;2380.80;;;;;;4887456;29;20089;-75
2023/06/20 02:24:22;;;;;;;34.88;17.95;;;512.30;2380.80;;;;;;4889647;29;20027;-75
2023/06/20 02:26:48;;;;;;;27.15;18.48;;;512.40;2380.80;;;;;;4880244;29;20021;-75
2023/06/20 02:29:15;;;;;;;25.63;18.38;;;512.40;2380.80;;;;;;4884042;29;20049;-74
2023/06/20 02:31:45;;;;;;;25.67;18.38;;;512.60;2380.80;;;;;;4884482;29;20063;-77
2023/06/20 02:34:14;;;;;;;32.15;20.00;;;512.60;2380.80;;;;;;4884864;29;20043;-75
2023/06/20 02:36:43;;;;;;;28.02;19.63;;;512.60;2380.80;;;;;;4886817;29;20077;-81
2023/06/20 02:39:09;;;;;;;28.58;19.50;;;512.50;2380.80;;;;;;4891195;29;20438;-76
2023/06/20 02:41:35;;;;;;;29.80;20.33;;;512.20;2380.80;;;;;;4884183;29;20124;-75
2023/06/20 02:44:01;;;;;;;31.35;19.58;;;512.10;2380.80;;;;;;4890330;29;20039;-75
2023/06/20 02:46:41;;;;;;;24.80;19.30;;;512.00;2380.80;;;;;;4887878;29;20503;-75
2023/06/20 02:49:28;;;;;;;36.22;20.38;;;512.00;2380.80;;;;;;4888080;29;20020;-75
2023/06/20 02:52:12;;;;;;;28.50;18.60;;;512.30;2380.80;;;;;;4882816;29;20074;-76
2023/06/20 02:54:53;;;;;;;30.95;20.85;;;512.30;2380.80;;;;;;4884239;29;20049;-81
2023/06/20 02:57:21;;;;;;;31.98;20.50;;;512.10;2380.80;;;;;;4888180;29;20012;-75
2023/06/20 02:59:54;;;;;;;32.20;21.33;;;512.00;2380.80;;;;;;4887808;29;20036;-75
2023/06/20 03:02:22;;;;;;;28.05;19.58;;;487.30;2380.80;;;;;;4884098;29;20542;-74
2023/06/20 03:04:56;;;;;;;28.73;21.00;;;512.00;2380.80;;;;;;4890426;29;20133;-75
2023/06/20 03:07:26;;;;;;;31.88;19.58;;;512.10;2380.80;;;;;;4891467;29;20032;-74
2023/06/20 03:09:52;;;;;;;31.35;20.83;;;512.00;2380.80;;;;;;4873462;29;20045;-75
2023/06/20 03:12:18;;;;;;;31.92;20.23;;;512.00;2380.80;;;;;;4887905;29;20040;-75
2023/06/20 03:14:44;;;;;;;39.00;21.35;;;512.30;2380.80;;;;;;4895385;29;20119;-75
2023/06/20 03:17:10;;;;;;;29.88;19.05;;;512.30;2380.80;;;;;;4897291;29;20052;-79
2023/06/20 03:19:35;;;;;;;31.35;21.58;;;512.10;2380.80;;;;;;4897357;29;20388;-75
2023/06/20 03:22:01;;;;;;;34.13;23.23;;;512.00;2380.80;;;;;;4897001;29;20041;-74
2023/06/20 03:24:27;;;;;;;36.40;21.50;;;487.30;2380.80;;;;;;4889439;29;20053;-75
2023/06/20 03:26:52;;;;;;;40.42;22.65;;;487.20;2380.80;;;;;;4884431;29;20026;-74
2023/06/20 03:29:18;;;;;;;32.13;22.52;;;487.20;2380.80;;;;;;4889049;29;20013;-74
2023/06/20 03:31:44;;;;;;;29.38;21.05;;;487.20;2380.80;;;;;;4884573;29;20506;-75
2023/06/20 03:34:09;;;;;;;32.70;23.27;;;487.20;2380.80;;;;;;4882484;29;20032;-82
2023/06/20 03:36:35;;;;;;;29.52;22.65;;;487.20;2380.80;;;;;;4886548;29;20428;-81
2023/06/20 03:39:00;;;;;;;46.13;23.08;;;487.20;2380.80;;;;;;4882407;29;20025;-75
2023/06/20 03:41:26;;;;;;;29.50;21.83;;;512.00;2380.80;;;;;;4885963;29;20065;-75
2023/06/20 03:43:52;;;;;;;32.17;22.45;;;512.10;2380.80;;;;;;4885300;29;20479;-81
2023/06/20 03:46:17;;;;;;;34.90;22.38;;;512.30;2380.80;;;;;;4885909;29;20037;-81
2023/06/20 03:48:43;;;;;;;27.95;20.90;;;512.30;2380.80;;;;;;4883357;29;20028;-76
2023/06/20 03:51:09;;;;;;;34.25;22.00;;;512.30;2380.80;;;;;;4884896;29;20111;-78
2023/06/20 03:53:35;;;;;;;33.03;23.52;;;512.40;2380.80;;;;;;4887204;29;20057;-81
2023/06/20 03:56:02;;;;;;;32.08;22.42;;;512.40;2380.80;;;;;;4885283;29;20025;-76
2023/06/20 03:58:28;;;;;;;28.95;21.88;;;512.30;2380.80;;;;;;4881312;29;20395;-75
2023/06/20 04:00:54;;;;;;;31.70;23.23;;;512.40;2380.80;;;;;;4887273;29;20025;-75
2023/06/20 04:03:19;;;;;;;25.40;20.33;;;512.50;2380.80;;;;;;4886849;29;20029;-75
2023/06/20 04:05:45;;;;;;;27.60;22.60;;;512.50;2380.80;;;;;;4889401;29;20021;-75
2023/06/20 04:08:11;;;;;;;29.45;21.98;;;512.70;2380.80;;;;;;4885540;29;20058;-75
2023/06/20 04:10:37;;;;;;;29.67;21.67;;;512.80;2380.80;;;;;;4884613;29;20030;-82
2023/06/20 04:13:03;;;;;;;37.38;22.00;;;512.90;2380.80;;;;;;4887193;29;20041;-80
2023/06/20 04:15:29;;;;;;;28.48;21.88;;;537.60;2406.40;;;;;;4884931;29;20052;-75
2023/06/20 04:17:55;;;;;;;33.78;21.52;;;537.70;2406.40;;;;;;4882748;29;20045;-80
2023/06/20 04:20:21;;;;;;;30.58;22.67;;;;;;;;;;4882066;29;20387;-74
2023/06/20 04:22:46;;;;;;;31.05;22.45;;;537.80;2406.40;;;;;;4889047;29;20031;-75
2023/06/20 04:25:13;;;;;;;29.30;21.27;;;537.80;2406.40;;;;;;4886790;29;20103;-82
2023/06/20 04:27:39;;;;;;;29.45;21.65;;;537.80;2406.40;;;;;;4887800;29;20471;-79
2023/06/20 04:30:06;;;;;;;29.77;21.98;;;537.90;2406.40;;;;;;4890371;29;20081;-74
2023/06/20 04:32:32;;;;;;;30.40;21.52;;;538.00;2406.40;;;;;;4879755;29;20164;-76
2023/06/20 04:34:58;;;;;;;35.47;22.15;;;538.00;2406.40;;;;;;4888835;29;20100;-80
2023/06/20 04:37:24;;;;;;;25.88;20.23;;;538.00;2406.40;;;;;;4883911;29;20483;-77
2023/06/20 04:39:50;;;;;;;39.55;21.08;;;;;;;;;;4884118;29;20081;-80
2023/06/20 04:42:16;;;;;;;30.02;21.70;;;;;;;;;;4894407;29;20174;-75
2023/06/20 04:44:48;;;;;;;29.90;20.63;;;;;;;;;;4896885;29;20510;-74
2023/06/20 04:47:14;;;;;;;36.50;21.33;;;563.20;2432.00;;;;;;4884036;29;20040;-79
2023/06/20 04:49:40;;;;;;;30.40;22.13;;;538.40;2406.40;;;;;;4886509;29;20112;-80
2023/06/20 04:52:08;;;;;;;27.90;22.25;;;538.40;2406.40;;;;;;4888525;29;20462;-82
2023/06/20 04:54:34;;;;;;;32.55;21.92;;;538.50;2406.40;;;;;;4886262;29;20072;-74
2023/06/20 04:57:02;;;;;;;25.42;20.17;;;538.50;2406.40;;;;;;4891508;29;20412;-74
2023/06/20 04:59:28;;;;;;;28.63;21.13;;;538.50;2406.40;;;;;;4887266;29;20029;-78
2023/06/20 05:01:55;;;;;;;30.17;21.08;;;538.50;2406.40;;;;;;4888634;29;20044;-74
2023/06/20 05:04:21;;;;;;;27.77;20.90;;;563.20;2432.00;;;;;;4890337;29;20040;-75
2023/06/20 05:06:47;;;;;;;31.55;21.15;;;563.30;2432.00;;;;;;4887664;29;20036;-75
2023/06/20 05:09:13;;;;;;;29.52;21.23;;;563.30;2432.00;;;;;;4891248;29;20028;-74
2023/06/20 05:11:39;;;;;;;31.65;21.02;;;563.20;2432.00;;;;;;4881784;29;20480;-75
2023/06/20 05:14:04;;;;;;;29.88;20.63;;;563.20;2432.00;;;;;;4890578;29;20060;-77
2023/06/20 05:16:30;;;;;;;31.38;21.42;;;563.30;2432.00;;;;;;4884302;29;20029;-74
2023/06/20 05:18:56;;;;;;;30.00;19.60;;;563.30;2432.00;;;;;;4894260;29;20498;-74
2023/06/20 05:21:22;;;;;;;28.83;20.90;;;563.40;2432.00;;;;;;4885438;29;20120;-74
2023/06/20 05:23:47;;;;;;;25.63;20.33;;;563.60;2432.00;;;;;;4890568;29;20460;-77
2023/06/20 05:26:13;;;;;;;29.20;19.88;;;563.60;2432.00;;;;;;4893872;29;20555;-74
2023/06/20 05:28:39;;;;;;;27.80;19.52;;;563.80;2432.00;;;;;;4889082;29;20510;-77
2023/06/20 05:31:04;;;;;;;23.70;19.13;;;564.00;2432.00;;;;;;4887665;29;20033;-75
2023/06/20 05:33:30;;;;;;;24.67;19.17;;;564.00;2432.00;;;;;;4890902;29;20030;-73
2023/06/20 05:35:57;;;;;;;29.42;18.88;;;564.10;2432.00;;;;;;4890427;29;20021;-74
2023/06/20 05:38:23;;;;;;;25.95;19.25;;;564.10;2432.00;;;;;;4892754;29;20526;-72
2023/06/20 05:40:49;;;;;;;25.80;18.63;;;;;;;;;;4893285;29;20040;-74
2023/06/20 05:43:15;;;;;;;24.48;18.17;;;589.30;2432.00;;;;;;4883851;29;20528;-75
2023/06/20 05:45:41;;;;;;;26.63;17.63;;;589.40;2432.00;;;;;;4891494;29;20044;-73
2023/06/20 05:48:08;;;;;;;24.90;17.48;;;589.40;2432.00;;;;;;4890197;29;20032;-73
2023/06/20 05:50:35;;;;;;;24.20;17.02;;;589.60;2432.00;;;;;;4885239;29;20040;-72
2023/06/20 05:53:01;;;;;;;22.17;16.15;;;589.60;2432.00;;;;;;4892978;29;20491;-72
2023/06/20 05:55:26;;;;;;;22.80;16.77;;;589.50;2432.00;;;;;;4891008;29;20037;-74
2023/06/20 05:57:52;;;;;;;20.90;16.25;;;589.40;2432.00;;;;;;4891287;29;20045;-76
2023/06/20 06:00:18;;;;;;;20.33;16.40;;;589.50;2432.00;;;;;;4884197;29;20169;-74
2023/06/20 06:02:45;;;;;;;27.33;18.30;;;589.50;2432.00;;;;;;4884203;29;20480;-72
2023/06/20 06:05:11;;;;;;;24.00;16.40;;;589.60;2432.00;;;;;;4890071;29;20052;-77
2023/06/20 06:07:38;;;;;;;21.42;16.77;;;589.70;2432.00;;;;;;4885266;29;20033;-72
2023/06/20 06:10:09;;;;;;;19.95;15.93;;;589.70;2432.00;;;;;;4883689;29;20033;-70
2023/06/20 06:12:36;;;;;;;21.52;16.25;;;614.40;2432.00;;;;;;4884662;29;20081;-77
2023/06/20 06:15:03;;;;;;;18.13;15.40;;;614.40;2432.00;;;;;;4890006;29;20124;-74
2023/06/20 06:17:30;;;;;;;23.13;15.02;;;614.40;2432.00;;;;;;4887498;29;20021;-73
2023/06/20 06:19:56;;;;;;;24.35;16.80;;;614.40;2432.00;;;;;;4890705;29;20632;-72
2023/06/20 06:22:22;;;;;;;23.50;15.43;;;614.50;2432.00;;;;;;4884126;29;20037;-77
2023/06/20 06:24:48;;;;;;;21.92;15.05;;;614.70;2432.00;;;;;;4896605;29;20034;-73
2023/06/20 06:27:13;;;;;;;21.05;15.18;;;614.80;2432.00;;;;;;4893353;29;20491;-72
2023/06/20 06:29:39;;;;;;;26.42;15.27;;;614.90;2432.00;;;;;;4884897;29;20444;-72
2023/06/20 06:32:06;;;;;;;18.65;13.55;;;615.00;2432.00;;;;;;4890155;29;20096;-72
2023/06/20 06:34:33;;;;;;;18.42;14.18;;;615.00;2432.00;;;;;;4888644;29;20116;-72
2023/06/20 06:36:59;;;;;;;19.30;13.55;;;615.20;2432.00;;;;;;4886856;29;20085;-72
2023/06/20 06:39:26;;;;;;;19.92;13.90;;;615.30;2432.00;;;;;;4883323;29;20117;-72
2023/06/20 06:41:51;;;;;;;17.73;14.13;;;615.30;2432.00;;;;;;4883496;29;20093;-73
2023/06/20 06:44:18;;;;;;;18.05;14.80;;;640.00;2432.00;;;;;;4889608;29;20033;-71
2023/06/20 06:46:44;;;;;;;20.25;14.00;;;615.30;2432.00;;;;;;4881800;29;20151;-72
2023/06/20 06:49:10;;;;;;;26.27;14.70;;;640.20;2432.00;;;;;;4882952;29;20029;-72
2023/06/20 06:51:38;;;;;;;21.33;13.88;;;640.40;2432.00;;;;;;4891083;29;20036;-72
2023/06/20 06:54:04;;;;;;;17.08;13.20;;;640.30;2432.00;;;;;;4886365;29;20028;-70
2023/06/20 06:56:30;;;;;;;22.33;13.50;;;640.40;2432.00;;;;;;4891207;29;20111;-71
2023/06/20 06:58:57;;;;;;;16.05;12.63;;;640.50;2432.00;;;;;;4881159;29;20495;-71
2023/06/20 07:01:24;;;;;;;20.55;13.75;;;640.60;2432.00;;;;;;4882590;29;20048;-72
2023/06/20 07:03:50;;;;;;;17.00;13.52;;;640.80;2432.00;;;;;;4876570;29;20049;-70
2023/06/20 07:06:15;;;;;;;17.10;14.57;;;640.90;2432.00;;;;;;4888546;29;20432;-71
2023/06/20 07:08:41;;;;;;;18.33;13.50;;;640.90;2432.00;;;;;;4892618;29;20032;-73
2023/06/20 07:11:06;;;;;;;20.55;13.45;;;665.60;2432.00;;;;;;4882676;29;20024;-71
2023/06/20 07:13:32;;;;;;;18.00;13.88;;;665.70;2432.00;;;;;;4882005;29;20092;-71
2023/06/20 07:15:58;;;;;;;16.40;12.98;;;665.80;2432.00;;;;;;4889384;29;20040;-71
2023/06/20 07:18:24;;;;;;;17.45;13.18;;;665.90;2432.00;;;;;;4888852;29;20443;-72
2023/06/20 07:20:49;;;;;;;16.90;12.15;;;666.00;2432.00;;;;;;4885308;29;20044;-72
2023/06/20 07:23:15;;;;;;;20.08;13.65;;;666.00;2432.00;;;;;;4896567;29;20049;-72
2023/06/20 07:25:40;;;;;;;19.88;14.75;;;666.20;2432.00;;;;;;4889411;29;20404;-76
2023/06/20 07:28:06;;;;;;;17.45;14.27;;;666.30;2432.00;;;;;;4881331;29;20113;-72
2023/06/20 07:30:32;;;;;;;20.48;14.77;;;666.40;2432.00;;;;;;4881697;29;20058;-71
2023/06/20 07:32:58;;;;;;;14.93;13.18;;;666.30;2432.00;;;;;;4890214;29;20033;-72
2023/06/20 07:35:23;;;;;;;19.17;14.40;;;666.50;2432.00;;;;;;4886030;29;20028;-72
2023/06/20 07:37:49;;;;;;;22.05;14.98;;;691.20;2432.00;;;;;;4892239;29;20432;-72
2023/06/20 07:40:15;;;;;;;26.20;14.00;;;691.30;2432.00;;;;;;4888083;29;20387;-73
2023/06/20 07:42:41;;;;;;;16.13;13.55;;;691.30;2432.00;;;;;;4889608;29;20032;-72
2023/06/20 07:45:07;;;;;;;21.60;13.93;;;691.40;2432.00;;;;;;4887900;29;20513;-75
2023/06/20 07:47:32;;;;;;;21.73;12.60;;;691.50;2432.00;;;;;;4883853;29;20027;-72
2023/06/20 07:49:58;;;;;;;17.10;11.63;;;691.40;2432.00;;;;;;4890078;29;20020;-72
2023/06/20 07:52:24;;;;;;;15.48;10.88;;;691.40;2432.00;;;;;;4881317;29;20532;-77
2023/06/20 07:54:50;;;;;;;18.90;12.23;;;691.70;2432.00;;;;;;4888806;29;20024;-72
2023/06/20 07:57:15;;;;;;;14.82;10.73;;;691.70;2432.00;;;;;;4884486;29;20021;-72
2023/06/20 07:59:41;;;;;;;19.13;10.70;;;691.70;2432.00;;;;;;4889296;29;20502;-71
2023/06/20 08:02:07;;;;;;;13.35;11.02;;;691.90;2432.00;;;;;;4885332;29;20036;-72
2023/06/20 08:04:33;;;;;;;16.88;11.50;;;691.90;2432.00;;;;;;4883318;29;20039;-73
2023/06/20 08:06:58;;;;;;;14.10;10.32;;;691.90;2432.00;;;;;;4888160;29;20025;-72
2023/06/20 08:09:24;;;;;;;14.50;10.45;;;692.10;2432.00;;;;;;4881845;29;20017;-72
2023/06/20 08:11:49;;;;;;;13.32;10.02;;;716.80;2432.00;;;;;;4889501;29;20029;-72
2023/06/20 08:14:16;;;;;;;15.57;10.45;;;716.90;2432.00;;;;;;4883015;29;20411;-73
2023/06/20 08:16:42;;;;;;;17.35;10.45;;;716.80;2406.40;;;;;;4880983;29;20472;-72
2023/06/20 08:19:08;;;;;;;15.40;10.68;;;716.80;2432.00;;;;;;4889746;29;20112;-73
2023/06/20 08:21:33;;;;;;;15.18;10.63;;;716.90;2406.40;;;;;;4882031;29;20495;-72
2023/06/20 08:23:59;;;;;;;15.30;10.50;;;717.00;2432.00;;;;;;4884307;29;20021;-71
2023/06/20 08:26:25;;;;;;;13.52;10.27;;;717.10;2227.20;;;;;;4890557;29;20475;-73
2023/06/20 08:28:50;;;;;;;14.77;10.52;;;717.10;2304.00;;;;;;4882060;29;20109;-73
2023/06/20 08:31:16;;;;;;;12.27;10.80;;;717.20;2278.40;;;;;;4883492;29;20104;-74
2023/06/20 08:33:42;;;;;;;14.95;10.52;;;717.20;2227.20;;;;;;4892177;29;20025;-75
2023/06/20 08:36:10;;;;;;;14.68;10.68;;;717.30;2432.00;;;;;;4887694;29;20040;-73
2023/06/20 08:38:36;;;;;;;15.40;10.38;;;717.40;2329.60;;;;;;4885081;29;20025;-71
2023/06/20 08:41:03;;;;;;;13.98;10.77;;;717.40;2380.80;;;;;;4893227;29;20044;-71
2023/06/20 08:43:29;;;;;;;13.45;11.63;;;717.40;2355.20;;;;;;4888526;29;20077;-70
2023/06/20 08:45:55;;;;;;;14.60;10.25;;;717.40;2432.00;;;;;;4885448;29;20033;-71
2023/06/20 08:48:23;;;;;;;13.23;10.48;;;717.50;2278.40;;;;;;4890305;29;20037;-70
2023/06/20 08:50:49;;;;;;;17.02;9.95;;;717.60;2432.00;;;;;;4887770;29;20024;-71
2023/06/20 08:53:16;;;;;;;28.80;12.68;;;717.70;2329.60;;;;;;4884129;29;20485;-71
2023/06/20 08:55:43;;;;;;;12.93;10.15;;;717.70;2380.80;;;;;;4894917;29;20028;-71
2023/06/20 08:58:09;;;;;;;14.55;10.05;;;742.40;2406.40;;;;;;4888569;29;20494;-71
2023/06/20 09:00:36;;;;;;;13.65;9.95;;;742.40;2227.20;;;;;;4893894;29;20029;-72
2023/06/20 09:03:02;;;;;;;12.65;10.23;;;742.40;2278.40;;;;;;4895802;29;20036;-71
2023/06/20 09:05:32;;;;;;;12.25;10.60;;;742.50;2176.00;;;;;;4889033;29;20060;-71
2023/06/20 09:07:58;;;;;;;14.52;9.73;;;742.50;2124.80;;;;;;4894750;29;20056;-72
2023/06/20 09:10:25;;;;;;;12.80;9.70;;;742.50;2073.60;;;;;;4889518;29;20116;-70
2023/06/20 09:12:51;;;;;;;13.90;10.00;;;742.50;2022.40;;;;;;4884464;29;20041;-70
2023/06/20 09:15:22;;;;;;;15.60;10.55;;;742.50;2022.40;;;;;;4884806;29;20092;-70
2023/06/20 09:17:54;;;;;;;15.45;10.02;;;742.60;1971.20;;;;;;4891474;29;20387;-70
2023/06/20 09:20:21;;;;;;;13.05;10.10;;;742.70;1894.40;;;;;;4894172;29;20468;-70
2023/06/20 09:22:47;;;;;;;13.43;10.70;;;742.80;1920.00;;;;;;4890354;29;20036;-70
2023/06/20 09:25:18;;;;;;;13.90;10.77;;;742.80;1971.20;;;;;;4892300;29;20017;-71
2023/06/20 09:27:44;;;;;;;12.90;10.40;;;742.90;1996.80;;;;;;4884494;29;20044;-71
2023/06/20 09:30:10;;;;;;;16.95;11.95;;;743.00;1945.60;;;;;;4884680;29;20025;-73
2023/06/20 09:32:41;;;;;;;18.50;10.20;;;743.00;1920.00;;;;;;4891323;29;20029;-71
2023/06/20 09:35:09;;;;;;;16.10;10.95;;;743.10;1894.40;;;;;;4884795;29;20029;-70
2023/06/20 09:37:41;;;;;;;18.10;10.88;;;743.30;1868.80;;;;;;4884624;29;20116;-71
2023/06/20 09:40:11;;;;;;;17.85;10.15;;;768.00;2022.40;;;;;;4886700;29;20029;-71
2023/06/20 09:42:42;;;;;;;15.30;10.30;;;768.10;1920.00;;;;;;4892091;29;20041;-71
2023/06/20 09:45:09;;;;;;;13.57;9.50;;;768.20;2022.40;;;;;;4891127;29;20033;-72
2023/06/20 09:47:37;;;;;;;17.38;10.73;;;768.20;1868.80;;;;;;4884097;29;20475;-71
2023/06/20 09:50:13;;;;;;;11.70;10.48;;;768.40;1868.80;;;;;;4892252;29;20050;-71
2023/06/20 09:53:00;;;;;;;13.27;10.77;;;768.50;1920.00;;;;;;4881318;29;20096;-72
2023/06/20 09:55:26;;;;;;;19.88;10.32;;;768.80;1792.00;;;;;;4884154;29;20018;-71
2023/06/20 09:57:58;;;;;;;12.95;9.55;;;768.90;1792.00;;;;;;4882490;29;20069;-71
2023/06/20 10:00:26;;;;;;;10.65;8.60;;;768.90;1817.60;;;;;;4892326;29;20024;-72
2023/06/20 10:02:53;;;;;;;11.52;9.40;;;793.70;1817.60;;;;;;4894115;29;20047;-70
2023/06/20 10:05:22;;;;;;;13.95;9.82;;;793.70;1996.80;;;;;;4887765;29;20031;-71
2023/06/20 10:07:49;;;;;;;15.13;10.88;;;793.80;1920.00;;;;;;4883527;29;20033;-75
2023/06/20 10:10:16;;;;;;;15.93;10.05;;;794.10;1894.40;;;;;;4890309;29;20021;-71
2023/06/20 10:12:44;;;;;;;18.95;10.82;;;793.90;1920.00;;;;;;4890765;29;20033;-71
2023/06/20 10:15:11;;;;;;;12.32;9.90;;;794.20;1843.20;;;;;;4890935;29;20029;-72
2023/06/20 10:17:46;;;;;;;15.25;9.98;;;794.30;1792.00;;;;;;4885766;29;20039;-71
2023/06/20 10:20:34;;;;;;;12.48;9.68;;;794.30;1971.20;;;;;;4882400;29;20108;-71
2023/06/20 10:23:05;;;;;;;13.77;9.90;;;794.20;1868.80;;;;;;4893697;29;20067;-72
2023/06/20 10:25:32;;;;;;;12.70;9.15;;;794.30;1740.80;;;;;;4889999;29;20021;-71
2023/06/20 10:28:03;;;;;;;13.93;9.65;;;794.20;1868.80;;;;;;4883731;29;20479;-71
2023/06/20 10:30:50;;;;;;;13.35;9.85;;;794.10;1792.00;;;;;;4890208;29;20037;-71
2023/06/20 10:33:37;;;;;;;11.18;9.70;;;794.20;2124.80;;;;;;4887477;29;20029;-71
2023/06/20 10:36:10;;;;;;;12.45;9.25;;;794.20;1843.20;;;;;;4896134;29;20060;-76
2023/06/20 10:38:51;;;;;;;12.52;10.00;;;794.20;1740.80;;;;;;4872391;29;20444;-70
2023/06/20 10:41:25;;;;;;;14.18;9.75;;;794.20;1715.20;;;;;;4885085;29;20503;-70
2023/06/20 10:43:53;;;;;;;12.50;9.15;;;794.50;1766.40;;;;;;4885291;29;20479;-71
2023/06/20 10:46:21;;;;;;;14.45;10.23;;;794.50;1766.40;;;;;;4889922;29;20039;-70
2023/06/20 10:48:47;;;;;;;12.07;9.65;;;794.20;1792.00;;;;;;4886448;29;20025;-69
2023/06/20 10:51:12;;;;;;;13.55;9.48;;;794.20;1766.40;;;;;;4891059;29;20054;-70
2023/06/20 10:53:38;;;;;;;14.07;9.60;;;794.40;1817.60;;;;;;4888681;29;20024;-71
2023/06/20 10:56:04;;;;;;;10.90;9.57;;;794.50;1792.00;;;;;;4890792;29;20033;-70
2023/06/20 10:58:30;;;;;;;12.85;10.02;;;819.30;1817.60;;;;;;4891265;29;20027;-70
2023/06/20 11:00:55;;;;;;;13.82;10.05;;;819.60;1996.80;;;;;;4885031;29;20554;-72
2023/06/20 11:03:23;;;;;;;15.70;9.45;;;819.80;1766.40;;;;;;4869315;29;20037;-71
2023/06/20 11:05:50;;;;;;;12.35;9.75;;;819.80;1766.40;;;;;;4881597;29;20041;-70
2023/06/20 11:08:26;;;;;;;14.35;10.48;;;819.80;1766.40;;;;;;4885244;29;20033;-70
2023/06/20 11:10:52;;;;;;;13.18;9.65;;;819.80;1740.80;;;;;;4888770;29;20552;-71
2023/06/20 11:13:18;;;;;;;14.10;9.68;;;820.00;1740.80;;;;;;4896945;29;20041;-70
2023/06/20 11:15:43;;;;;;;16.85;9.75;;;820.00;1689.60;;;;;;4890906;29;20043;-70
2023/06/20 11:18:09;;;;;;;11.48;8.93;;;819.90;1689.60;;;;;;4886961;29;20032;-70
2023/06/20 11:20:41;;;;;;;10.65;9.55;;;820.10;1561.60;;;;;;4885645;29;20104;-71
2023/06/20 11:23:10;;;;;;;12.93;9.80;;;820.10;1664.00;;;;;;4894245;29;20928;-72
2023/06/20 11:25:37;;;;;;;12.25;9.55;;;820.00;1638.40;;;;;;4888435;29;20157;-71
2023/06/20 11:28:14;;;;;;;11.13;8.95;;;820.00;1638.40;;;;;;4881504;29;20388;-71
2023/06/20 11:30:48;;;;;;;12.32;9.60;;;844.90;1536.00;;;;;;4882128;29;20035;-71
2023/06/20 11:33:15;;;;;;;11.60;9.32;;;845.00;1536.00;;;;;;4888206;29;20028;-71
2023/06/20 11:35:52;;;;;;;12.40;9.68;;;845.10;1536.00;;;;;;4883877;29;20396;-70
2023/06/20 11:38:24;;;;;;;13.98;10.07;;;845.10;1536.00;;;;;;4890102;29;20088;-70
2023/06/20 11:41:04;;;;;;;13.57;9.45;;;845.10;1510.40;;;;;;4887781;29;20029;-70
2023/06/20 11:43:42;;;;;;;11.38;8.68;;;845.00;1484.80;;;;;;4883727;29;20033;-70
2023/06/20 11:46:10;;;;;;;14.23;8.93;;;845.00;1510.40;;;;;;4890179;29;20039;-73
2023/06/20 11:48:36;;;;;;;15.98;8.55;;;845.30;1484.80;;;;;;4881621;29;20032;-72
2023/06/20 11:51:07;;;;;;;11.13;8.48;;;845.40;1510.40;;;;;;4887888;29;20033;-70
2023/06/20 11:53:36;;;;;;;11.95;9.13;;;845.40;1536.00;;;;;;4884492;29;20059;-71
2023/06/20 11:56:12;;;;;;;10.15;8.68;;;845.40;1536.00;;;;;;4886299;29;20029;-72
2023/06/20 11:58:46;;;;;;;11.50;9.02;;;845.40;1484.80;;;;;;4871799;29;20068;-71
2023/06/20 12:01:17;;;;;;;11.68;8.85;;;845.60;1408.00;;;;;;4887284;29;20455;-70
2023/06/20 12:03:45;;;;;;;10.38;8.30;;;845.70;1459.20;;;;;;4885624;29;20498;-71
2023/06/20 12:06:29;;;;;;;11.15;9.00;;;870.40;1433.60;;;;;;4882047;29;20033;-70
2023/06/20 12:08:57;;;;;;;9.13;8.13;;;870.40;1382.40;;;;;;4888410;29;20484;-71